Time;durP1;ratioP1;P1;durP2;ratioP2;P2;SDS_P1;SDS_P2;PMS_P1;PMS_P2;Temp;Humidity;BMP_temperature;BMP_pressure;BME280_temperature;BME280_humidity;BME280_pressure;Samples;Min_cycle;Max_cycle;Signal;HPM_P1;HPM_P2
2024/02/06 00:00:33;;;;;;;8.90;3.60;;;;;;;7.93;74.71;98289.31;226603;1276;25889;-90
2024/02/06 00:05:36;;;;;;;7.40;3.00;;;;;;;7.82;74.80;98289.98;226777;1275;22572;-91
2024/02/06 00:10:44;;;;;;;8.30;2.90;;;;;;;7.71;75.13;98290.08;226852;1277;24267;-89
2024/02/06 00:15:47;;;;;;;7.40;3.10;;;;;;;7.61;75.32;98281.77;226371;1277;24232;-90
2024/02/06 00:20:50;;;;;;;6.10;3.00;;;;;;;7.52;75.43;98284.77;226767;1272;22555;-90
2024/02/06 00:25:55;;;;;;;9.00;2.90;;;;;;;7.43;75.45;98284.20;226649;1277;22539;-89
2024/02/06 00:30:58;;;;;;;6.40;3.10;;;;;;;7.34;75.80;98284.78;226761;1274;22575;-89
2024/02/06 00:36:02;;;;;;;5.00;2.90;;;;;;;7.26;75.87;98280.90;226540;1277;24356;-90
2024/02/06 00:41:11;;;;;;;6.90;2.80;;;;;;;7.18;75.97;98284.64;226707;1277;24166;-91
2024/02/06 00:46:14;;;;;;;7.70;2.90;;;;;;;7.13;76.37;98279.25;226532;1277;22577;-89
2024/02/06 00:51:19;;;;;;;5.50;3.30;;;;;;;7.09;76.36;98272.16;226611;1277;22538;-89
2024/02/06 00:56:23;;;;;;;6.70;2.90;;;;;;;7.05;76.58;98267.46;226499;1277;22547;-91
2024/02/06 01:01:30;;;;;;;5.90;3.20;;;;;;;7.03;76.44;98258.55;226550;1259;22705;-89
2024/02/06 01:06:37;;;;;;;6.10;2.90;;;;;;;7.02;76.45;98252.09;226789;1264;22551;-90
2024/02/06 01:11:40;;;;;;;7.50;3.10;;;;;;;6.99;76.74;98251.71;226770;1277;22551;-91
2024/02/06 01:16:43;;;;;;;8.40;3.10;;;;;;;6.95;76.84;98255.73;226689;1277;23818;-90
2024/02/06 01:21:46;;;;;;;8.40;2.90;;;;;;;6.90;76.70;98254.64;226794;1277;22654;-90
2024/02/06 01:26:48;;;;;;;8.60;3.60;;;;;;;6.84;76.79;98249.13;226545;1269;22560;-91
2024/02/06 01:31:51;;;;;;;7.00;3.40;;;;;;;6.78;77.04;98248.54;226476;1275;22543;-91
2024/02/06 01:36:54;;;;;;;5.90;3.20;;;;;;;6.73;77.19;98242.24;226635;1277;22535;-90
2024/02/06 01:41:57;;;;;;;5.50;3.10;;;;;;;6.71;77.45;98245.42;226875;1273;26167;-90
2024/02/06 01:47:00;;;;;;;6.70;2.70;;;;;;;6.71;77.51;98240.63;226795;1275;25420;-91
2024/02/06 01:52:04;;;;;;;5.80;3.00;;;;;;;6.69;77.52;98241.27;226597;1273;22595;-90
2024/02/06 01:57:08;;;;;;;6.20;3.30;;;;;;;6.65;77.41;98237.16;226467;1277;22583;-90
2024/02/06 02:02:11;;;;;;;6.70;3.40;;;;;;;6.64;77.34;98240.61;226714;1277;23262;-89
2024/02/06 02:07:18;;;;;;;8.00;2.90;;;;;;;6.63;77.52;98229.52;226597;1275;22562;-91
2024/02/06 02:12:22;;;;;;;8.50;2.60;;;;;;;6.60;77.68;98230.52;226705;1277;22566;-88
2024/02/06 02:17:30;;;;;;;5.50;2.30;;;;;;;6.52;77.45;98228.40;226581;1271;22564;-90
2024/02/06 02:22:33;;;;;;;5.30;2.60;;;;;;;6.41;77.81;98222.60;226464;1277;22589;-89
2024/02/06 02:27:38;;;;;;;6.90;2.80;;;;;;;6.30;77.78;98222.81;226730;1277;22564;-91
2024/02/06 02:32:42;;;;;;;9.10;2.80;;;;;;;6.20;77.84;98220.65;226458;1277;25413;-91
2024/02/06 02:37:46;;;;;;;7.00;3.00;;;;;;;6.12;77.81;98217.88;226448;1277;22540;-90
2024/02/06 02:42:50;;;;;;;6.40;2.80;;;;;;;6.06;78.09;98221.80;226380;1277;22540;-89
2024/02/06 02:47:54;;;;;;;8.60;3.00;;;;;;;5.98;78.11;98217.95;226450;1277;24186;-90
2024/02/06 02:52:58;;;;;;;9.30;2.80;;;;;;;5.90;78.26;98220.22;226674;1277;24227;-88
2024/02/06 02:58:01;;;;;;;7.10;3.60;;;;;;;5.85;78.45;98217.61;226555;1277;22564;-90
2024/02/06 03:03:07;;;;;;;6.30;2.80;;;;;;;5.82;78.20;98214.08;226670;1277;22560;-90
2024/02/06 03:08:12;;;;;;;7.20;3.20;;;;;;;5.85;78.62;98219.19;226555;1277;25236;-89
2024/02/06 03:13:16;;;;;;;6.40;3.10;;;;;;;5.88;78.66;98221.19;226494;1277;22547;-89
2024/02/06 03:18:23;;;;;;;6.60;3.00;;;;;;;5.88;78.97;98220.25;226540;1277;22551;-90
2024/02/06 03:23:27;;;;;;;8.00;3.20;;;;;;;5.85;78.67;98219.19;226392;1277;22536;-88
2024/02/06 03:28:32;;;;;;;9.40;3.50;;;;;;;5.80;78.86;98221.98;226657;1277;24957;-90
2024/02/06 03:33:35;;;;;;;9.90;3.60;;;;;;;5.75;78.60;98221.73;226657;1261;22547;-88
2024/02/06 03:38:39;;;;;;;5.60;3.10;;;;;;;5.67;78.93;98227.81;226401;1253;22551;-91
2024/02/06 03:43:41;;;;;;;6.20;2.60;;;;;;;5.61;78.98;98230.64;226645;1275;22540;-90
2024/02/06 03:48:44;;;;;;;7.90;2.70;;;;;;;5.56;79.04;98229.24;226583;1277;22558;-89
2024/02/06 03:53:47;;;;;;;8.40;3.20;;;;;;;5.55;79.25;98230.65;226511;1277;22555;-88
2024/02/06 03:58:50;;;;;;;5.40;2.50;;;;;;;5.53;79.44;98226.59;226692;1277;22677;-90
2024/02/06 04:03:53;;;;;;;6.70;2.70;;;;;;;5.51;79.16;98228.04;226507;1277;22612;-90
2024/02/06 04:08:56;;;;;;;9.00;2.70;;;;;;;5.48;78.90;98223.84;226789;1277;22478;-88
2024/02/06 04:14:00;;;;;;;9.50;3.00;;;;;;;5.45;79.40;98225.10;226530;1277;22545;-90
2024/02/06 04:19:03;;;;;;;6.60;2.90;;;;;;;5.43;79.23;98225.36;226557;1277;22535;-90
2024/02/06 04:24:08;;;;;;;14.80;3.30;;;;;;;5.41;79.18;98225.55;226556;1277;22553;-89
2024/02/06 04:29:13;;;;;;;17.40;4.00;;;;;;;5.41;79.28;98225.92;226487;1272;22558;-89
2024/02/06 04:34:16;;;;;;;18.70;4.30;;;;;;;5.40;79.44;98225.10;226519;1277;22540;-89
2024/02/06 04:39:19;;;;;;;12.40;3.20;;;;;;;5.40;79.57;98229.46;226495;1277;22541;-88
2024/02/06 04:44:24;;;;;;;12.40;3.20;;;;;;;5.38;79.73;98225.70;226615;1261;22548;-90
2024/02/06 04:49:28;;;;;;;6.70;2.40;;;;;;;5.38;79.42;98221.83;226592;1277;22556;-88
2024/02/06 04:54:30;;;;;;;8.80;3.20;;;;;;;5.40;79.56;98224.94;226662;1272;22562;-89
2024/02/06 04:59:33;;;;;;;5.50;2.90;;;;;;;5.43;79.32;98224.13;226534;1277;22571;-89
2024/02/06 05:04:35;;;;;;;6.90;3.70;;;;;;;5.45;79.49;98224.57;226372;1277;22539;-90
2024/02/06 05:09:38;;;;;;;8.30;2.80;;;;;;;5.47;79.58;98223.66;226665;1277;22536;-89
2024/02/06 05:14:42;;;;;;;8.40;3.10;;;;;;;5.46;79.29;98216.63;226527;1277;22565;-90
2024/02/06 05:19:45;;;;;;;7.70;3.10;;;;;;;5.45;79.65;98216.16;226443;1277;22578;-87
2024/02/06 05:24:48;;;;;;;8.70;3.30;;;;;;;5.43;79.26;98216.63;226395;1277;22548;-88
2024/02/06 05:29:53;;;;;;;9.20;3.80;;;;;;;5.39;79.38;98212.46;226648;1275;22534;-89
2024/02/06 05:34:57;;;;;;;8.00;3.60;;;;;;;5.36;79.39;98216.87;226326;1277;22559;-89
2024/02/06 05:40:06;;;;;;;8.70;3.70;;;;;;;5.32;79.38;98215.71;226652;1266;22588;-88
2024/02/06 05:45:09;;;;;;;12.70;4.70;;;;;;;5.28;79.34;98222.60;226702;1277;22486;-90
2024/02/06 05:50:12;;;;;;;9.30;4.40;;;;;;;5.21;79.33;98228.63;226691;1277;22653;-87
2024/02/06 05:55:16;;;;;;;11.30;4.50;;;;;;;5.14;79.82;98226.92;226627;1275;22544;-89
2024/02/06 06:00:21;;;;;;;9.70;4.00;;;;;;;5.09;79.79;98226.91;226396;1277;24198;-88
2024/02/06 06:05:24;;;;;;;10.00;5.00;;;;;;;5.05;79.76;98225.97;226667;1277;22999;-87
2024/02/06 06:10:29;;;;;;;8.80;4.10;;;;;;;5.01;79.84;98223.67;226411;1277;22551;-90
2024/02/06 06:15:31;;;;;;;13.30;5.20;;;;;;;4.98;79.99;98225.89;226564;1277;24479;-88
2024/02/06 06:20:37;;;;;;;11.60;4.90;;;;;;;4.96;80.18;98226.79;226376;1277;22671;-88
2024/02/06 06:25:39;;;;;;;12.70;5.40;;;;;;;4.98;80.21;98226.27;226553;1277;22747;-87
2024/02/06 06:30:41;;;;;;;11.90;4.90;;;;;;;5.00;80.42;98224.10;226609;1276;22597;-87
2024/02/06 06:35:44;;;;;;;9.30;5.60;;;;;;;5.07;80.09;98224.86;226499;1277;25974;-89
2024/02/06 06:40:46;;;;;;;9.00;5.30;;;;;;;5.21;80.42;98228.77;226349;1277;24250;-89
2024/02/06 06:45:48;;;;;;;11.00;4.90;;;;;;;5.46;80.77;98223.75;226626;1273;24228;-89
2024/02/06 06:50:54;;;;;;;9.70;4.20;;;;;;;5.81;80.48;98227.05;226524;1278;23450;-90
2024/02/06 06:55:58;;;;;;;7.00;4.50;;;;;;;6.12;79.90;98242.73;226412;1273;22672;-82
2024/02/06 07:01:01;;;;;;;10.60;5.10;;;;;;;6.37;79.44;98244.73;226467;1273;22544;-90
2024/02/06 07:06:07;;;;;;;15.30;7.80;;;;;;;6.57;78.75;98244.27;226264;1259;22988;-79
2024/02/06 07:11:11;;;;;;;7.30;3.40;;;;;;;6.77;77.84;98254.17;225824;1270;22572;-82
2024/02/06 07:16:14;;;;;;;7.50;3.00;;;;;;;6.98;77.68;98252.42;226378;1272;22536;-83
2024/02/06 07:21:16;;;;;;;8.20;3.80;;;;;;;7.16;76.90;98254.06;226104;1266;22545;-85
2024/02/06 07:26:19;;;;;;;7.20;3.20;;;;;;;7.27;77.10;98255.86;226005;1275;22485;-85
2024/02/06 07:31:21;;;;;;;6.50;3.30;;;;;;;7.36;76.80;98263.02;226042;1277;24350;-85
2024/02/06 07:36:24;;;;;;;9.50;3.60;;;;;;;7.43;76.29;98265.11;226370;1260;22543;-85
2024/02/06 07:41:26;;;;;;;7.40;3.50;;;;;;;7.50;76.28;98261.07;226132;1273;22633;-87
2024/02/06 07:46:28;;;;;;;4.70;2.80;;;;;;;7.57;75.79;98264.08;226390;1276;22665;-85
2024/02/06 07:51:30;;;;;;;7.30;3.00;;;;;;;7.64;75.59;98255.69;226504;1277;22593;-84
2024/02/06 07:56:33;;;;;;;7.70;3.30;;;;;;;7.69;75.68;98258.67;226300;1275;22550;-84
2024/02/06 08:01:35;;;;;;;6.40;3.10;;;;;;;7.76;75.26;98259.94;225781;1264;22527;-85
2024/02/06 08:06:37;;;;;;;9.50;3.70;;;;;;;7.82;74.74;98261.95;226461;1272;25412;-85
2024/02/06 08:11:40;;;;;;;7.80;3.80;;;;;;;7.85;75.16;98263.26;226279;1260;22559;-85
2024/02/06 08:16:42;;;;;;;6.30;3.10;;;;;;;7.88;74.73;98269.41;226325;1276;22547;-85
2024/02/06 08:21:44;;;;;;;7.00;3.20;;;;;;;7.90;74.67;98275.67;226238;1277;24278;-84
2024/02/06 08:26:47;;;;;;;7.80;3.20;;;;;;;7.92;74.57;98272.56;226250;1277;22563;-84
2024/02/06 08:31:49;;;;;;;9.80;4.30;;;;;;;7.99;74.60;98277.98;226058;1276;22524;-85
2024/02/06 08:36:52;;;;;;;8.10;3.50;;;;;;;8.07;74.56;98283.02;226251;1275;22539;-85
2024/02/06 08:41:54;;;;;;;8.10;3.50;;;;;;;8.14;74.07;98283.52;226030;1275;22551;-85
2024/02/06 08:46:56;;;;;;;12.60;3.20;;;;;;;8.19;74.09;98287.15;225813;1275;248777;-85
2024/02/06 08:51:59;;;;;;;6.00;3.30;;;;;;;8.24;74.09;98287.67;226038;1277;22543;-85
2024/02/06 08:57:02;;;;;;;7.80;3.40;;;;;;;8.34;73.51;98287.33;225957;1276;23025;-85
2024/02/06 09:02:04;;;;;;;5.80;3.50;;;;;;;8.45;72.83;98284.16;226219;1270;25284;-85
2024/02/06 09:07:07;;;;;;;9.50;3.80;;;;;;;8.57;72.58;98269.30;226253;1272;22558;-87
2024/02/06 09:12:09;;;;;;;7.60;3.20;;;;;;;8.74;72.31;98271.58;226333;1271;22567;-85
2024/02/06 09:17:11;;;;;;;7.40;3.80;;;;;;;8.96;71.84;98267.59;226224;1274;24885;-83
2024/02/06 09:22:13;;;;;;;5.00;3.20;;;;;;;9.13;71.42;98269.84;226056;1266;25453;-84
2024/02/06 09:27:17;;;;;;;6.40;3.30;;;;;;;9.21;71.11;98266.02;225999;1278;22572;-86
2024/02/06 09:32:19;;;;;;;8.50;3.10;;;;;;;9.30;71.05;98273.86;226232;1274;23703;-83
2024/02/06 09:37:21;;;;;;;8.60;3.70;;;;;;;9.33;70.69;98279.64;226054;1270;22606;-82
2024/02/06 09:42:23;;;;;;;7.20;3.30;;;;;;;9.33;70.16;98276.19;225859;1277;22570;-85
2024/02/06 09:47:27;;;;;;;11.70;3.50;;;;;;;9.26;69.39;98259.83;225897;1270;24450;-83
2024/02/06 09:52:31;;;;;;;10.50;3.10;;;;;;;9.25;69.58;98272.84;225998;1254;22602;-83
2024/02/06 09:57:37;;;;;;;7.40;3.30;;;;;;;9.29;69.78;98272.14;225797;1271;23114;-78
2024/02/06 10:02:43;;;;;;;12.10;4.20;;;;;;;9.34;69.35;98280.70;226161;1270;24247;-78
2024/02/06 10:07:48;;;;;;;6.00;3.30;;;;;;;9.35;69.69;98283.41;226108;1276;22558;-78
2024/02/06 10:12:50;;;;;;;11.80;4.80;;;;;;;9.33;69.56;98281.75;226332;1254;22545;-78
2024/02/06 10:17:53;;;;;;;12.00;4.90;;;;;;;9.30;69.40;98274.43;226255;1259;22563;-78
2024/02/06 10:22:55;;;;;;;14.10;4.40;;;;;;;9.26;69.22;98267.05;226314;1270;22557;-78
2024/02/06 10:27:58;;;;;;;13.40;5.30;;;;;;;9.22;69.68;98257.20;226191;1270;22570;-77
2024/02/06 10:33:12;;;;;;;14.10;4.90;;;;;;;9.26;69.86;98256.63;226137;1273;22537;-78
2024/02/06 10:38:15;;;;;;;10.40;4.00;;;;;;;9.31;69.88;98256.91;226271;1270;22553;-81
2024/02/06 10:43:17;;;;;;;9.70;3.70;;;;;;;9.38;69.49;98250.73;225942;1270;23407;-79
2024/02/06 10:48:23;;;;;;;7.40;3.30;;;;;;;9.46;69.12;98245.52;225774;1254;25337;-80
2024/02/06 10:53:26;;;;;;;9.30;5.40;;;;;;;9.53;69.24;98241.18;225836;1276;22580;-81
2024/02/06 10:58:38;;;;;;;5.50;3.00;;;;;;;9.58;68.82;98238.25;225870;1267;22559;-80
2024/02/06 11:03:57;;;;;;;7.20;2.80;;;;;;;9.64;69.32;98233.53;226306;1270;22550;-80
2024/02/06 11:09:04;;;;;;;9.00;3.90;;;;;;;9.69;68.68;98225.92;226243;1270;23276;-81
2024/02/06 11:14:10;;;;;;;8.10;3.10;;;;;;;9.66;68.54;98224.45;226112;1265;22570;-79
2024/02/06 11:19:21;;;;;;;5.80;2.90;;;;;;;9.66;68.45;98222.41;226088;1272;22548;-79
2024/02/06 11:24:25;;;;;;;25.10;19.10;;;;;;;9.67;68.39;98224.36;226175;1267;23270;-79
2024/02/06 11:29:27;;;;;;;7.80;3.40;;;;;;;9.75;68.32;98223.40;226268;1264;22582;-79
2024/02/06 11:34:29;;;;;;;5.50;2.90;;;;;;;9.74;67.75;98217.31;226164;1270;22570;-80
2024/02/06 11:39:32;;;;;;;5.00;3.00;;;;;;;9.69;67.77;98216.35;226341;1270;22558;-78
2024/02/06 11:44:34;;;;;;;5.70;3.20;;;;;;;9.56;67.51;98215.39;226191;1273;22554;-79
2024/02/06 11:49:36;;;;;;;6.80;3.40;;;;;;;9.44;68.07;98209.94;226019;1269;22609;-77
2024/02/06 11:54:38;;;;;;;5.50;2.80;;;;;;;9.36;67.84;98212.56;225668;1254;22535;-79
2024/02/06 11:59:42;;;;;;;5.70;2.80;;;;;;;9.29;67.67;98207.45;225905;1272;22582;-80
2024/02/06 12:04:44;;;;;;;8.00;3.40;;;;;;;9.28;68.24;98204.61;226059;1256;22557;-80
2024/02/06 12:09:49;;;;;;;8.00;4.60;;;;;;;9.31;68.11;98198.96;226009;1272;24238;-79
2024/02/06 12:14:51;;;;;;;7.20;3.80;;;;;;;9.38;68.30;98194.82;226021;1262;22654;-81
2024/02/06 12:20:00;;;;;;;8.00;3.70;;;;;;;9.48;68.02;98197.55;225645;1273;22689;-80
2024/02/06 12:25:13;;;;;;;5.90;2.90;;;;;;;9.62;67.87;98189.63;225905;1270;25258;-81
2024/02/06 12:30:22;;;;;;;8.10;3.20;;;;;;;9.68;67.83;98181.80;225887;1263;22603;-80
2024/02/06 12:35:25;;;;;;;6.90;3.90;;;;;;;9.71;67.58;98176.38;226149;1274;22555;-78
2024/02/06 12:40:28;;;;;;;6.30;3.30;;;;;;;9.72;67.59;98163.20;226479;1270;22555;-78
2024/02/06 12:45:33;;;;;;;5.60;3.20;;;;;;;9.71;67.89;98163.36;226467;1270;24249;-76
2024/02/06 12:50:35;;;;;;;7.40;3.50;;;;;;;9.73;68.18;98161.83;225970;1270;22538;-75
2024/02/06 12:55:39;;;;;;;6.50;3.30;;;;;;;9.76;68.20;98161.61;225733;1264;22549;-76
2024/02/06 13:00:42;;;;;;;7.30;3.30;;;;;;;9.75;68.13;98166.98;225838;1269;22551;-76
2024/02/06 13:05:52;;;;;;;5.20;2.90;;;;;;;9.71;67.75;98156.46;225858;1270;22595;-77
2024/02/06 13:10:55;;;;;;;8.80;3.60;;;;;;;9.63;67.69;98151.37;226144;1263;24808;-77
2024/02/06 13:15:57;;;;;;;8.50;3.60;;;;;;;9.59;68.15;98147.33;226078;1269;22546;-77
2024/02/06 13:21:03;;;;;;;11.30;7.60;;;;;;;9.54;68.24;98144.27;226117;1270;22579;-76
2024/02/06 13:26:06;;;;;;;5.50;2.70;;;;;;;9.48;67.75;98139.38;226273;1263;22543;-76
2024/02/06 13:31:08;;;;;;;10.50;3.10;;;;;;;9.40;67.58;98145.51;226198;1263;22521;-76
2024/02/06 13:36:17;;;;;;;5.10;2.70;;;;;;;9.35;67.38;98139.89;226265;1269;22572;-76
2024/02/06 13:41:20;;;;;;;13.00;4.30;;;;;;;9.30;67.59;98138.77;225969;1254;22551;-81
2024/02/06 13:46:24;;;;;;;4.40;2.70;;;;;;;9.30;67.72;98132.52;225846;1270;23052;-79
2024/02/06 13:51:26;;;;;;;8.40;3.50;;;;;;;9.29;67.32;98125.51;225688;1258;22575;-78
2024/02/06 13:56:28;;;;;;;6.30;3.30;;;;;;;9.28;67.50;98113.16;225966;1257;22679;-77
2024/02/06 14:01:29;;;;;;;13.70;3.60;;;;;;;9.27;67.75;98112.14;226116;1259;22547;-77
2024/02/06 14:06:33;;;;;;;6.20;3.60;;;;;;;9.20;67.72;98107.50;226060;1270;22574;-78
2024/02/06 14:11:36;;;;;;;7.60;3.80;;;;;;;9.10;68.41;98106.17;226128;1270;22563;-78
2024/02/06 14:16:39;;;;;;;7.70;3.40;;;;;;;8.99;68.32;98112.33;226252;1262;25281;-78
2024/02/06 14:21:44;;;;;;;6.70;3.30;;;;;;;8.90;68.26;98102.63;226046;1266;22614;-77
2024/02/06 14:26:46;;;;;;;5.30;2.90;;;;;;;8.77;68.40;98098.83;226235;1270;22557;-77
2024/02/06 14:31:48;;;;;;;4.90;2.90;;;;;;;8.65;68.36;98095.95;226054;1258;25294;-75
2024/02/06 14:36:50;;;;;;;5.70;2.60;;;;;;;8.55;68.85;98096.73;226296;1270;22478;-80
2024/02/06 14:41:53;;;;;;;5.60;2.70;;;;;;;8.45;68.75;98092.82;226280;1270;22564;-76
2024/02/06 14:46:55;;;;;;;5.60;2.80;;;;;;;8.37;68.89;98095.41;226131;1255;23323;-84
2024/02/06 14:51:57;;;;;;;3.80;2.80;;;;;;;8.29;69.05;98094.81;226223;1275;22550;-80
2024/02/06 14:56:59;;;;;;;4.20;2.20;;;;;;;8.22;69.40;98099.52;226054;1270;22923;-81
2024/02/06 15:02:01;;;;;;;17.20;11.30;;;;;;;8.16;69.64;98106.03;226067;1256;22578;-80
2024/02/06 15:07:03;;;;;;;3.20;2.50;;;;;;;8.11;69.60;98111.05;225564;1272;22592;-79
2024/02/06 15:12:06;;;;;;;3.40;2.30;;;;;;;8.08;69.62;98103.33;225631;1277;23454;-79
2024/02/06 15:17:09;;;;;;;5.00;2.70;;;;;;;8.04;70.14;98109.80;226105;1277;22544;-80
2024/02/06 15:22:11;;;;;;;4.70;2.80;;;;;;;7.99;70.24;98109.04;226126;1275;23700;-81
2024/02/06 15:27:14;;;;;;;5.60;2.60;;;;;;;7.94;70.02;98100.20;225875;1269;24228;-82
2024/02/06 15:32:16;;;;;;;5.60;2.70;;;;;;;7.87;70.59;98107.90;226283;1276;25281;-81
2024/02/06 15:37:18;;;;;;;6.60;3.30;;;;;;;7.80;70.51;98109.09;226416;1276;22561;-80
2024/02/06 15:42:21;;;;;;;6.00;3.20;;;;;;;7.75;70.91;98113.03;226441;1260;22593;-83
2024/02/06 15:47:23;;;;;;;6.60;2.90;;;;;;;7.72;71.31;98112.51;226148;1277;22542;-81
2024/02/06 15:52:26;;;;;;;6.40;4.30;;;;;;;7.71;71.24;98115.27;226394;1277;22556;-81
2024/02/06 15:57:28;;;;;;;3.60;2.30;;;;;;;7.70;71.45;98114.94;226383;1274;23295;-81
2024/02/06 16:02:31;;;;;;;3.20;2.20;;;;;;;7.68;71.53;98115.27;226331;1276;22582;-81
2024/02/06 16:07:35;;;;;;;5.90;2.80;;;;;;;7.67;71.72;98103.36;226390;1277;22995;-79
2024/02/06 16:12:37;;;;;;;5.40;2.50;;;;;;;7.66;71.97;98098.09;226133;1274;22558;-81
2024/02/06 16:17:54;;;;;;;4.80;2.90;;;;;;;7.61;71.89;98080.76;226394;1272;22551;-80
2024/02/06 16:22:56;;;;;;;4.80;2.50;;;;;;;7.59;72.17;98084.50;226325;1276;23292;-81
2024/02/06 16:27:59;;;;;;;5.80;2.60;;;;;;;7.57;72.11;98078.95;226400;1276;22557;-81
2024/02/06 16:33:02;;;;;;;6.30;2.70;;;;;;;7.56;72.32;98076.81;226396;1274;25271;-82
2024/02/06 16:38:04;;;;;;;5.00;2.70;;;;;;;7.55;72.24;98078.66;226430;1277;22543;-81
2024/02/06 16:43:06;;;;;;;4.80;2.30;;;;;;;7.55;72.46;98075.38;226378;1276;22548;-81
2024/02/06 16:48:08;;;;;;;3.90;2.70;;;;;;;7.53;72.35;98074.18;226349;1277;22554;-80
2024/02/06 16:53:11;;;;;;;4.50;2.90;;;;;;;7.53;72.28;98069.73;226410;1277;22527;-81
2024/02/06 16:58:14;;;;;;;4.50;2.80;;;;;;;7.53;72.34;98064.75;226447;1277;22554;-82
2024/02/06 17:03:16;;;;;;;6.10;3.00;;;;;;;7.54;72.47;98066.46;226470;1273;25534;-81
2024/02/06 17:08:19;;;;;;;6.90;2.80;;;;;;;7.53;72.50;98059.10;226445;1277;22614;-81
2024/02/06 17:13:21;;;;;;;4.90;3.10;;;;;;;7.54;72.38;98062.84;226216;1277;22563;-80
2024/02/06 17:18:28;;;;;;;7.20;3.50;;;;;;;7.53;72.51;98058.98;226407;1272;22549;-81
2024/02/06 17:23:30;;;;;;;6.50;2.70;;;;;;;7.55;72.29;98050.38;226434;1274;22559;-81
2024/02/06 17:28:33;;;;;;;5.60;3.30;;;;;;;7.55;72.03;98054.19;226086;1264;24775;-81
2024/02/06 17:33:35;;;;;;;5.70;3.30;;;;;;;7.54;72.35;98056.20;226427;1273;22554;-80
2024/02/06 17:38:39;;;;;;;5.90;3.10;;;;;;;7.54;72.38;98044.64;226244;1275;22499;-81
2024/02/06 17:43:44;;;;;;;4.60;2.50;;;;;;;7.53;72.05;98026.19;226337;1277;22545;-80
2024/02/06 17:48:47;;;;;;;5.40;2.80;;;;;;;7.51;72.06;98010.48;226380;1275;22561;-80
2024/02/06 17:53:49;;;;;;;6.10;3.10;;;;;;;7.52;72.40;98005.87;226385;1277;22586;-79
2024/02/06 17:58:51;;;;;;;7.20;3.40;;;;;;;7.51;72.24;98005.48;226398;1277;22562;-81
2024/02/06 18:03:54;;;;;;;8.40;3.40;;;;;;;7.51;72.16;97990.37;226440;1262;22617;-81
2024/02/06 18:08:56;;;;;;;6.00;3.10;;;;;;;7.54;72.23;97997.44;226374;1275;22496;-80
2024/02/06 18:13:58;;;;;;;6.30;3.00;;;;;;;7.55;72.38;98001.81;226407;1277;22565;-81
2024/02/06 18:19:00;;;;;;;6.60;4.20;;;;;;;7.55;72.35;97999.15;226410;1274;22559;-81
2024/02/06 18:24:02;;;;;;;5.20;3.10;;;;;;;7.54;72.69;97992.67;226426;1275;22576;-81
2024/02/06 18:29:04;;;;;;;5.90;3.50;;;;;;;7.52;72.35;97998.15;226464;1269;22553;-82
2024/02/06 18:34:07;;;;;;;6.20;3.70;;;;;;;7.50;72.24;98001.85;226347;1277;22542;-81
2024/02/06 18:39:09;;;;;;;5.80;3.20;;;;;;;7.50;72.48;97993.31;226466;1275;22609;-82
2024/02/06 18:44:12;;;;;;;5.10;3.40;;;;;;;7.48;72.57;97989.33;226449;1275;22553;-80
2024/02/06 18:49:14;;;;;;;7.80;4.00;;;;;;;7.46;72.74;97977.86;226263;1273;25448;-81
2024/02/06 18:54:16;;;;;;;5.50;3.30;;;;;;;7.43;72.84;97968.54;226356;1275;24285;-81
2024/02/06 18:59:18;;;;;;;5.90;3.60;;;;;;;7.40;72.92;97970.27;226381;1272;22538;-81
2024/02/06 19:04:20;;;;;;;4.60;3.20;;;;;;;7.39;73.04;97971.51;226498;1276;22542;-81
2024/02/06 19:09:23;;;;;;;4.50;2.50;;;;;;;7.40;72.90;97971.36;226404;1275;22653;-82
2024/02/06 19:14:28;;;;;;;4.30;2.60;;;;;;;7.41;73.55;97955.27;226424;1272;22577;-80
2024/02/06 19:19:30;;;;;;;4.00;2.40;;;;;;;7.41;73.46;97958.14;226471;1275;22550;-81
2024/02/06 19:24:33;;;;;;;6.20;2.80;;;;;;;7.41;73.56;97946.26;226378;1275;22535;-81
2024/02/06 19:29:35;;;;;;;5.30;2.90;;;;;;;7.41;73.65;97944.39;226247;1275;22578;-80
2024/02/06 19:34:37;;;;;;;3.70;2.10;;;;;;;7.43;73.30;97935.38;226387;1277;25457;-81
2024/02/06 19:39:39;;;;;;;3.80;2.70;;;;;;;7.47;73.43;97929.52;226322;1277;22571;-82
2024/02/06 19:44:41;;;;;;;4.20;2.40;;;;;;;7.51;73.43;97923.61;226275;1272;22549;-82
2024/02/06 19:49:43;;;;;;;4.70;2.20;;;;;;;7.56;73.27;97914.97;226229;1276;24257;-82
2024/02/06 19:54:46;;;;;;;3.80;2.50;;;;;;;7.61;73.42;97915.33;226352;1275;22588;-81
2024/02/06 19:59:48;;;;;;;4.90;2.40;;;;;;;7.61;73.16;97916.65;226375;1272;22492;-82
2024/02/06 20:04:51;;;;;;;3.90;2.30;;;;;;;7.60;73.40;97904.75;226381;1276;24247;-81
2024/02/06 20:09:56;;;;;;;3.80;2.20;;;;;;;7.59;73.37;97910.44;226378;1276;24817;-80
2024/02/06 20:14:59;;;;;;;2.80;1.70;;;;;;;7.60;74.01;97915.42;226389;1277;22563;-80
2024/02/06 20:20:01;;;;;;;3.00;2.20;;;;;;;7.63;73.64;97904.45;226427;1277;22550;-81
2024/02/06 20:25:04;;;;;;;4.20;2.20;;;;;;;7.67;74.10;97898.63;226303;1276;22546;-81
2024/02/06 20:30:07;;;;;;;5.20;2.90;;;;;;;7.70;73.55;97889.19;226423;1277;24887;-81
2024/02/06 20:35:10;;;;;;;3.70;2.40;;;;;;;7.73;73.54;97889.36;226324;1277;24210;-81
2024/02/06 20:40:13;;;;;;;3.40;2.00;;;;;;;7.78;73.36;97883.05;226448;1276;22565;-81
2024/02/06 20:45:17;;;;;;;3.30;2.10;;;;;;;7.85;73.64;97883.83;226172;1277;245538;-80
2024/02/06 20:50:19;;;;;;;3.90;2.20;;;;;;;7.88;73.61;97884.48;226408;1267;22628;-81
2024/02/06 20:55:22;;;;;;;2.90;1.90;;;;;;;7.91;73.28;97879.33;226436;1274;24225;-80
2024/02/06 21:00:24;;;;;;;3.80;1.80;;;;;;;7.94;73.41;97873.84;226426;1274;22571;-82
2024/02/06 21:05:25;;;;;;;3.00;1.90;;;;;;;7.97;73.05;97880.14;226330;1275;25294;-81
2024/02/06 21:10:28;;;;;;;4.30;2.00;;;;;;;7.97;73.15;97871.85;226246;1277;22539;-81
2024/02/06 21:15:30;;;;;;;2.40;1.80;;;;;;;7.96;73.51;97867.23;226354;1277;22584;-82
2024/02/06 21:20:33;;;;;;;3.10;1.80;;;;;;;7.98;73.52;97860.56;226264;1277;22547;-81
2024/02/06 21:25:35;;;;;;;2.90;1.90;;;;;;;7.98;73.53;97848.02;226357;1275;22543;-81
2024/02/06 21:30:37;;;;;;;4.50;1.90;;;;;;;7.99;73.41;97826.34;226354;1275;22556;-81
2024/02/06 21:35:39;;;;;;;4.00;1.70;;;;;;;8.00;73.54;97815.77;226318;1277;22554;-81
2024/02/06 21:40:41;;;;;;;4.50;2.10;;;;;;;8.02;73.10;97819.13;226277;1277;22543;-82
2024/02/06 21:45:44;;;;;;;4.50;2.20;;;;;;;8.04;73.01;97812.71;226335;1275;22557;-81
2024/02/06 21:50:46;;;;;;;4.30;1.90;;;;;;;8.06;73.36;97810.73;226351;1275;22632;-80
2024/02/06 21:55:48;;;;;;;3.60;2.00;;;;;;;8.08;73.40;97800.17;226378;1275;24434;-80
2024/02/06 22:00:50;;;;;;;5.00;1.70;;;;;;;8.09;72.95;97797.77;226423;1277;22549;-81
2024/02/06 22:05:52;;;;;;;5.50;1.90;;;;;;;8.10;72.91;97795.27;226385;1277;22595;-81
2024/02/06 22:10:57;;;;;;;3.70;2.00;;;;;;;8.13;72.94;97793.77;226354;1277;22864;-82
2024/02/06 22:16:00;;;;;;;3.40;1.70;;;;;;;8.14;72.76;97792.33;226404;1275;22546;-81
2024/02/06 22:21:02;;;;;;;4.10;1.70;;;;;;;8.17;72.66;97781.36;226456;1277;22542;-82
2024/02/06 22:26:05;;;;;;;4.00;2.20;;;;;;;8.18;72.82;97778.64;226389;1275;22554;-81
2024/02/06 22:31:09;;;;;;;7.30;2.70;;;;;;;8.21;72.51;97769.39;226460;1277;25430;-81
2024/02/06 22:36:11;;;;;;;5.40;2.40;;;;;;;8.23;72.52;97762.91;226435;1275;22539;-82
2024/02/06 22:41:13;;;;;;;4.60;2.10;;;;;;;8.26;72.38;97761.20;226520;1275;22556;-82
2024/02/06 22:46:16;;;;;;;4.80;2.60;;;;;;;8.27;72.36;97756.54;226466;1276;22568;-81
2024/02/06 22:51:18;;;;;;;4.60;1.80;;;;;;;8.27;72.32;97751.56;226424;1273;25264;-81
2024/02/06 22:56:21;;;;;;;6.60;2.20;;;;;;;8.28;72.46;97748.16;226390;1277;22583;-81
2024/02/06 23:01:23;;;;;;;3.00;1.90;;;;;;;8.29;72.03;97735.30;226489;1269;22642;-80
2024/02/06 23:06:25;;;;;;;5.30;2.40;;;;;;;8.30;72.41;97734.13;226369;1277;22554;-81
2024/02/06 23:11:28;;;;;;;5.50;2.90;;;;;;;8.30;71.93;97731.34;226433;1277;22636;-81
2024/02/06 23:16:29;;;;;;;6.10;3.00;;;;;;;8.27;72.35;97727.11;226320;1277;22543;-80
2024/02/06 23:21:34;;;;;;;7.30;3.40;;;;;;;8.21;72.31;97726.92;226402;1276;22799;-81
2024/02/06 23:26:36;;;;;;;5.30;3.20;;;;;;;8.15;72.57;97711.78;226423;1275;22574;-80
2024/02/06 23:31:38;;;;;;;5.20;2.50;;;;;;;8.08;72.85;97705.96;226396;1274;22553;-81
2024/02/06 23:36:41;;;;;;;7.00;3.10;;;;;;;8.03;72.86;97697.24;226334;1277;22615;-81
2024/02/06 23:41:43;;;;;;;5.00;2.40;;;;;;;7.99;73.13;97695.92;226488;1275;25272;-81